createdAt,value
2023-04-27T00:02:43.247Z,2.85
2023-04-27T00:05:44.752Z,2.88
2023-04-27T00:08:46.125Z,2.75
2023-04-27T00:11:47.398Z,2.80
2023-04-27T00:14:48.670Z,2.40
2023-04-27T00:17:50.013Z,2.30
2023-04-27T00:20:51.382Z,2.38
2023-04-27T00:23:53.930Z,2.70
2023-04-27T00:26:55.220Z,2.42
2023-04-27T00:29:56.950Z,2.85
2023-04-27T00:32:58.255Z,2.45
2023-04-27T00:36:00.793Z,2.72
2023-04-27T00:39:03.122Z,2.50
2023-04-27T00:42:04.430Z,1.95
2023-04-27T00:45:06.183Z,2.80
2023-04-27T00:48:07.516Z,2.53
2023-04-27T00:51:08.829Z,2.60
2023-04-27T00:54:10.915Z,3.75
2023-04-27T00:57:12.246Z,2.50
2023-04-27T01:00:13.749Z,3.05
2023-04-27T01:03:15.390Z,2.25
2023-04-27T01:06:17.345Z,3.28
2023-04-27T01:09:19.976Z,2.58
2023-04-27T01:12:21.321Z,2.53
2023-04-27T01:15:22.575Z,2.60
2023-04-27T01:18:24.389Z,3.08
2023-04-27T01:21:26.206Z,2.90
2023-04-27T01:24:27.559Z,3.83
2023-04-27T01:27:28.812Z,2.78
2023-04-27T01:30:30.352Z,2.15
2023-04-27T01:33:31.714Z,2.35
2023-04-27T01:36:33.095Z,2.55
2023-04-27T01:39:34.439Z,2.03
2023-04-27T01:42:35.882Z,2.63
2023-04-27T01:45:37.300Z,2.65
2023-04-27T01:48:39.057Z,2.72
2023-04-27T01:54:59.382Z,1.95
2023-04-27T01:58:00.675Z,3.10
2023-04-27T02:01:01.961Z,2.75
2023-04-27T02:04:04.184Z,2.88
2023-04-27T02:07:05.670Z,2.25
2023-04-27T02:10:07.182Z,3.70
2023-04-27T02:13:09.661Z,2.80
2023-04-27T02:16:10.977Z,3.20
2023-04-27T02:19:12.507Z,3.13
2023-04-27T02:22:13.980Z,2.20
2023-04-27T02:28:34.579Z,2.92
2023-04-27T02:34:56.692Z,3.35
2023-04-27T02:37:57.979Z,2.28
2023-04-27T02:47:36.928Z,2.67
2023-04-27T02:50:42.165Z,2.72
2023-04-27T02:53:43.437Z,3.25
2023-04-27T02:56:44.716Z,3.40
2023-04-27T02:59:46.011Z,3.33
2023-04-27T03:06:06.130Z,3.03
2023-04-27T03:09:07.892Z,3.03
2023-04-27T03:22:45.841Z,2.95
2023-04-27T03:25:48.856Z,3.60
2023-04-27T03:28:50.242Z,3.15
2023-04-27T03:31:51.612Z,4.03
2023-04-27T03:34:53.357Z,4.38
2023-04-27T03:37:54.683Z,3.38
2023-04-27T03:40:56.269Z,3.53
2023-04-27T03:43:57.559Z,3.50
2023-04-27T03:46:58.919Z,3.33
2023-04-27T03:50:00.195Z,3.78
2023-04-27T03:53:01.485Z,3.75
2023-04-27T03:56:03.209Z,3.60
2023-04-27T03:59:04.654Z,3.47
2023-04-27T04:02:06.541Z,3.20
2023-04-27T04:05:08.583Z,2.10
2023-04-27T04:08:09.925Z,3.60
2023-04-27T04:11:11.225Z,3.03
2023-04-27T04:14:12.617Z,3.30
2023-04-27T04:17:13.900Z,3.17
2023-04-27T04:20:15.923Z,3.38
2023-04-27T04:23:17.176Z,3.63
2023-04-27T04:26:18.477Z,3.60
2023-04-27T04:29:19.761Z,3.03
2023-04-27T04:32:22.827Z,3.70
2023-04-27T04:35:24.134Z,3.67
2023-04-27T04:38:25.457Z,3.58
2023-04-27T04:41:26.846Z,3.05
2023-04-27T04:44:28.129Z,3.28
2023-04-27T04:47:31.634Z,3.80
2023-04-27T04:50:33.009Z,4.38
2023-04-27T04:53:34.254Z,4.88
2023-04-27T04:56:35.751Z,6.82
2023-04-27T04:59:37.060Z,6.55
2023-04-27T05:02:38.510Z,4.82
2023-04-27T05:05:39.971Z,3.97
2023-04-27T05:08:41.299Z,3.60
2023-04-27T05:11:42.631Z,4.25
2023-04-27T05:14:44.128Z,3.70
2023-04-27T05:17:45.600Z,3.28
2023-04-27T05:20:46.942Z,3.75
2023-04-27T05:23:48.241Z,2.95
2023-04-27T05:26:49.908Z,3.50
2023-04-27T05:29:51.709Z,4.63
2023-04-27T05:32:53.086Z,3.42
2023-04-27T05:35:54.395Z,4.18
2023-04-27T05:38:56.440Z,3.88
2023-04-27T05:41:57.753Z,3.63
2023-04-27T05:44:59.040Z,3.58
2023-04-27T05:48:00.368Z,2.65
2023-04-27T05:51:04.920Z,3.55
2023-04-27T05:54:07.684Z,3.47
2023-04-27T05:57:08.958Z,4.57
2023-04-27T06:00:11.073Z,3.25
2023-04-27T06:03:12.708Z,3.90
2023-04-27T06:06:14.082Z,3.60
2023-04-27T06:09:15.593Z,3.88
2023-04-27T06:12:17.113Z,3.60
2023-04-27T06:15:18.717Z,3.63
2023-04-27T06:18:19.983Z,3.45
2023-04-27T06:21:21.262Z,4.60
2023-04-27T06:24:22.883Z,4.10
2023-04-27T06:27:24.208Z,3.53
2023-04-27T06:30:25.641Z,3.55
2023-04-27T06:33:26.901Z,3.05
2023-04-27T06:36:28.200Z,3.00
2023-04-27T06:39:29.721Z,3.47
2023-04-27T06:42:30.953Z,3.30
2023-04-27T06:45:32.271Z,3.70
2023-04-27T06:48:33.580Z,2.97
2023-04-27T06:51:34.861Z,3.97
2023-04-27T06:54:36.128Z,3.58
2023-04-27T06:57:37.506Z,3.42
2023-04-27T07:00:38.872Z,3.30
2023-04-27T07:03:40.395Z,4.07
2023-04-27T07:06:41.799Z,3.08
2023-04-27T07:09:43.545Z,3.63
2023-04-27T07:12:44.909Z,2.95
2023-04-27T07:15:46.463Z,2.90
2023-04-27T07:18:47.957Z,2.85
2023-04-27T07:21:50.037Z,3.42
2023-04-27T07:24:51.503Z,2.80
2023-04-27T07:27:53.024Z,2.70
2023-04-27T07:30:54.356Z,2.67
2023-04-27T07:33:55.821Z,3.08
2023-04-27T07:36:57.142Z,2.70
2023-04-27T07:39:59.559Z,2.67
2023-04-27T07:43:01.337Z,2.47
2023-04-27T07:46:03.449Z,3.28
2023-04-27T07:49:04.796Z,2.90
2023-04-27T07:52:06.099Z,2.47
2023-04-27T07:55:08.144Z,2.38
2023-04-27T07:58:09.487Z,2.63
2023-04-27T08:01:10.861Z,3.20
2023-04-27T08:04:13.085Z,2.50
2023-04-27T08:07:16.040Z,3.80
2023-04-27T08:10:17.574Z,2.33
2023-04-27T08:13:18.932Z,2.83
2023-04-27T08:16:20.347Z,3.80
2023-04-27T08:19:21.797Z,2.50
2023-04-27T08:22:23.306Z,2.75
2023-04-27T08:25:24.658Z,2.60
2023-04-27T08:28:26.664Z,2.67
2023-04-27T08:31:28.338Z,2.58
2023-04-27T08:34:29.747Z,2.50
2023-04-27T08:37:31.043Z,2.92
2023-04-27T08:40:32.458Z,2.50
2023-04-27T08:43:35.261Z,2.25
2023-04-27T08:46:37.086Z,2.22
2023-04-27T08:49:38.649Z,2.03
2023-04-27T08:52:40.063Z,2.22
2023-04-27T08:55:41.384Z,2.67
2023-04-27T08:58:42.848Z,2.10
2023-04-27T09:01:48.881Z,2.35
2023-04-27T09:04:51.612Z,2.20
2023-04-27T09:08:00.043Z,1.98
2023-04-27T09:11:01.350Z,2.40
2023-04-27T09:14:14.781Z,2.80
2023-04-27T09:17:16.391Z,2.63
2023-04-27T09:20:18.777Z,2.65
2023-04-27T09:23:26.463Z,2.70
2023-04-27T09:26:28.086Z,3.08
2023-04-27T09:29:33.528Z,2.72
2023-04-27T09:32:34.926Z,3.13
2023-04-27T09:35:36.325Z,2.45
2023-04-27T09:38:37.906Z,2.92
2023-04-27T09:41:39.266Z,2.83
2023-04-27T09:44:40.601Z,2.55
2023-04-27T09:47:42.417Z,2.90
2023-04-27T09:50:45.009Z,2.53
2023-04-27T09:53:46.479Z,3.05
2023-04-27T09:56:50.631Z,3.22
2023-04-27T10:00:00.331Z,2.38
2023-04-27T10:03:15.206Z,3.13
2023-04-27T10:06:16.742Z,3.03
2023-04-27T10:09:23.611Z,2.47
2023-04-27T10:12:27.835Z,2.42
2023-04-27T10:15:29.988Z,3.00
2023-04-27T10:18:31.386Z,3.13
2023-04-27T10:21:32.914Z,2.65
2023-04-27T10:24:38.272Z,3.05
2023-04-27T10:27:39.789Z,2.78
2023-04-27T10:30:43.917Z,3.15
2023-04-27T10:33:45.414Z,3.05
2023-04-27T10:36:47.308Z,3.08
2023-04-27T10:39:49.967Z,3.38
2023-04-27T10:42:52.218Z,2.83
2023-04-27T10:45:53.930Z,3.10
2023-04-27T10:48:55.273Z,2.95
2023-04-27T10:52:01.806Z,2.88
2023-04-27T10:55:22.700Z,3.20
2023-04-27T10:58:26.535Z,3.92
2023-04-27T11:01:31.526Z,3.25
2023-04-27T11:04:40.239Z,3.10
2023-04-27T11:07:41.662Z,3.17
2023-04-27T11:10:44.252Z,2.95
2023-04-27T11:13:48.559Z,3.55
2023-04-27T11:16:49.854Z,3.35
2023-04-27T11:19:51.241Z,3.20
2023-04-27T11:22:52.583Z,2.97
2023-04-27T11:25:54.417Z,2.95
2023-04-27T11:29:05.225Z,2.67
2023-04-27T11:32:07.098Z,3.00
2023-04-27T11:35:10.326Z,3.15
2023-04-27T11:38:18.794Z,3.22
2023-04-27T11:41:20.219Z,2.97
2023-04-27T11:44:25.683Z,3.10
2023-04-27T11:47:32.663Z,2.53
2023-04-27T11:50:34.026Z,3.08
2023-04-27T11:53:36.380Z,2.63
2023-04-27T11:56:38.964Z,3.58
2023-04-27T11:59:40.247Z,3.08
2023-04-27T12:02:42.441Z,3.08
2023-04-27T12:05:50.736Z,2.97
2023-04-27T12:08:52.415Z,3.20
2023-04-27T12:11:54.716Z,3.17
2023-04-27T12:14:56.192Z,3.05
2023-04-27T12:17:57.476Z,3.53
2023-04-27T12:21:02.762Z,3.55
2023-04-27T12:24:04.694Z,3.15
2023-04-27T12:27:06.932Z,3.55
2023-04-27T12:30:08.425Z,3.47
2023-04-27T12:33:11.148Z,3.60
2023-04-27T12:36:12.588Z,3.65
2023-04-27T12:39:18.373Z,3.67
2023-04-27T12:42:23.886Z,3.20
2023-04-27T12:45:25.420Z,3.35
2023-04-27T12:48:26.848Z,3.30
2023-04-27T12:51:28.737Z,3.20
2023-04-27T12:54:30.019Z,3.35
2023-04-27T12:57:31.439Z,3.22
2023-04-27T13:00:34.153Z,3.42
2023-04-27T13:03:35.664Z,2.78
2023-04-27T13:06:37.014Z,3.20
2023-04-27T13:09:38.315Z,2.90
2023-04-27T13:12:39.619Z,2.90
2023-04-27T13:15:40.924Z,2.90
2023-04-27T13:18:47.363Z,2.90
2023-04-27T13:21:48.706Z,3.15
2023-04-27T13:24:50.048Z,3.67
2023-04-27T13:27:51.632Z,2.85
2023-04-27T13:30:53.027Z,3.22
2023-04-27T13:33:54.287Z,2.60
2023-04-27T13:36:55.626Z,2.95
2023-04-27T13:39:56.915Z,3.10
2023-04-27T13:42:58.393Z,2.72
2023-04-27T13:46:01.201Z,3.42
2023-04-27T13:52:05.069Z,3.00
2023-04-27T13:55:07.988Z,2.53
2023-04-27T13:58:10.425Z,2.70
2023-04-27T14:01:12.058Z,2.00
2023-04-27T14:04:13.617Z,2.70
2023-04-27T14:07:15.555Z,2.85
2023-04-27T14:10:17.508Z,2.88
2023-04-27T14:13:19.188Z,2.20
2023-04-27T14:16:20.978Z,1.83
2023-04-27T14:19:22.359Z,2.35
2023-04-27T14:22:23.670Z,1.83
2023-04-27T14:25:25.038Z,1.95
2023-04-27T14:28:26.448Z,1.90
2023-04-27T14:31:29.297Z,2.40
2023-04-27T14:34:30.605Z,2.22
2023-04-27T14:37:31.886Z,2.53
2023-04-27T14:40:33.205Z,2.20
2023-04-27T14:43:34.477Z,1.90
2023-04-27T14:46:36.582Z,2.05
2023-04-27T14:49:38.124Z,1.92
2023-04-27T14:52:39.533Z,1.67
2023-04-27T14:55:42.469Z,1.98
2023-04-27T14:58:43.719Z,2.20
2023-04-27T15:01:45.011Z,2.65
2023-04-27T15:04:46.342Z,2.30
2023-04-27T15:07:47.713Z,2.45
2023-04-27T15:10:49.023Z,1.98
2023-04-27T15:13:50.314Z,2.22
2023-04-27T15:16:51.694Z,2.20
2023-04-27T15:19:53.019Z,2.80
2023-04-27T15:22:54.317Z,2.22
2023-04-27T15:25:56.479Z,2.78
2023-04-27T15:28:59.362Z,2.40
2023-04-27T15:32:01.080Z,2.50
2023-04-27T15:35:02.450Z,2.50
2023-04-27T15:38:03.761Z,2.28
2023-04-27T15:41:05.114Z,2.30
2023-04-27T15:44:07.021Z,3.33
2023-04-27T15:47:08.797Z,2.70
2023-04-27T15:50:11.807Z,2.33
2023-04-27T15:53:13.178Z,3.20
2023-04-27T15:56:15.703Z,3.03
2023-04-27T15:59:17.271Z,3.00
2023-04-27T16:02:18.680Z,2.30
2023-04-27T16:05:20.310Z,2.97
2023-04-27T16:08:22.448Z,2.17
2023-04-27T16:11:23.763Z,3.00
2023-04-27T16:14:25.080Z,2.22
2023-04-27T16:17:27.522Z,2.30
2023-04-27T16:20:30.826Z,2.25
2023-04-27T16:23:32.502Z,2.50
2023-04-27T16:26:33.884Z,2.13
2023-04-27T16:29:35.357Z,2.55
2023-04-27T16:32:37.125Z,2.22
2023-04-27T16:35:38.465Z,2.25
2023-04-27T16:38:39.826Z,2.40
2023-04-27T16:41:41.121Z,3.33
2023-04-27T16:44:42.386Z,3.13
2023-04-27T16:47:47.474Z,2.13
2023-04-27T16:50:49.008Z,2.45
2023-04-27T16:53:50.772Z,2.47
2023-04-27T16:56:53.244Z,2.33
2023-04-27T16:59:56.369Z,2.38
2023-04-27T17:02:57.767Z,2.13
2023-04-27T17:05:59.067Z,2.70
2023-04-27T17:09:01.176Z,3.22
2023-04-27T17:12:03.540Z,2.55
2023-04-27T17:15:05.710Z,2.47
2023-04-27T17:18:07.975Z,2.60
2023-04-27T17:21:09.910Z,2.58
2023-04-27T17:24:11.225Z,2.40
2023-04-27T17:27:12.592Z,2.50
2023-04-27T17:30:14.000Z,2.30
2023-04-27T17:33:16.757Z,2.13
2023-04-27T17:36:18.213Z,2.22
2023-04-27T17:39:22.494Z,3.00
2023-04-27T17:42:23.784Z,2.78
2023-04-27T17:45:26.479Z,2.03
2023-04-27T17:48:27.875Z,2.53
2023-04-27T17:51:29.185Z,1.90
2023-04-27T17:54:30.599Z,1.90
2023-04-27T17:57:31.871Z,2.38
2023-04-27T18:00:33.466Z,2.35
2023-04-27T18:03:34.923Z,2.72
2023-04-27T18:06:36.413Z,2.10
2023-04-27T18:09:37.706Z,2.30
2023-04-27T18:12:38.983Z,2.17
2023-04-27T18:15:40.270Z,3.17
2023-04-27T18:18:41.567Z,3.75
2023-04-27T18:21:42.921Z,2.50
2023-04-27T18:24:44.262Z,2.22
2023-04-27T18:27:45.609Z,3.45
2023-04-27T18:30:46.880Z,2.42
2023-04-27T18:33:48.392Z,2.50
2023-04-27T18:36:52.745Z,2.65
2023-04-27T18:39:54.112Z,3.38
2023-04-27T18:42:55.437Z,2.70
2023-04-27T18:45:56.930Z,2.65
2023-04-27T18:48:58.208Z,2.60
2023-04-27T18:51:59.623Z,2.13
2023-04-27T18:55:01.074Z,2.70
2023-04-27T18:58:02.690Z,3.38
2023-04-27T19:01:04.060Z,3.30
2023-04-27T19:04:05.502Z,2.72
2023-04-27T19:07:06.895Z,4.88
2023-04-27T19:10:08.668Z,3.92
2023-04-27T19:13:10.029Z,3.65
2023-04-27T19:16:11.610Z,3.25
2023-04-27T19:19:13.330Z,3.25
2023-04-27T19:22:14.805Z,3.00
2023-04-27T19:25:16.432Z,3.38
2023-04-27T19:28:21.248Z,2.78
2023-04-27T19:31:22.713Z,2.25
2023-04-27T19:34:24.098Z,2.58
2023-04-27T19:37:26.021Z,2.75
2023-04-27T19:40:27.325Z,2.65
2023-04-27T19:43:29.023Z,3.17
2023-04-27T19:46:30.746Z,3.10
2023-04-27T19:49:35.416Z,2.80
2023-04-27T19:52:36.922Z,3.13
2023-04-27T19:55:39.074Z,3.15
2023-04-27T19:58:40.428Z,2.28
2023-04-27T20:01:42.241Z,3.13
2023-04-27T20:17:11.472Z,2.53
2023-04-27T20:20:50.701Z,3.17
2023-04-27T20:31:35.885Z,3.50
2023-04-27T20:43:08.114Z,3.63
2023-04-27T20:46:47.156Z,3.35
2023-04-27T20:54:22.571Z,3.10
2023-04-27T21:09:51.455Z,2.20
2023-04-27T21:17:26.759Z,2.53
2023-04-27T21:28:58.953Z,2.40
2023-04-27T21:40:12.719Z,2.90
2023-04-27T21:51:44.925Z,2.80
2023-04-27T21:55:05.189Z,3.13
2023-04-27T21:58:44.303Z,3.45
2023-04-27T22:01:45.661Z,3.33
2023-04-27T22:05:06.725Z,3.85
2023-04-27T22:08:26.911Z,2.95
2023-04-27T22:11:46.782Z,3.05
2023-04-27T22:15:25.773Z,2.95
2023-04-27T22:18:46.053Z,2.60
2023-04-27T22:21:47.312Z,3.05
2023-04-27T22:24:48.627Z,3.58
2023-04-27T22:27:50.253Z,3.20
2023-04-27T22:30:51.491Z,3.33
2023-04-27T22:33:52.876Z,3.30
2023-04-27T22:36:54.162Z,4.05
2023-04-27T22:39:56.086Z,2.63
2023-04-27T22:42:57.429Z,2.15
2023-04-27T22:45:58.679Z,2.42
2023-04-27T22:49:01.425Z,1.92
2023-04-27T22:52:03.631Z,2.90
2023-04-27T22:55:04.985Z,2.05
2023-04-27T22:58:06.441Z,2.15
2023-04-27T23:01:07.794Z,2.78
2023-04-27T23:04:09.353Z,3.00
2023-04-27T23:07:11.022Z,3.13
2023-04-27T23:10:12.919Z,2.65
2023-04-27T23:13:14.583Z,2.72
2023-04-27T23:16:16.215Z,2.33
2023-04-27T23:19:17.592Z,2.95
2023-04-27T23:22:18.877Z,2.35
2023-04-27T23:25:20.134Z,3.20
2023-04-27T23:28:22.399Z,3.25
2023-04-27T23:31:23.920Z,2.95
2023-04-27T23:34:25.198Z,3.28
2023-04-27T23:37:26.484Z,3.00
2023-04-27T23:40:27.725Z,3.15
2023-04-27T23:43:29.017Z,3.25
2023-04-27T23:46:30.343Z,3.10
2023-04-27T23:49:31.800Z,3.00
2023-04-27T23:52:33.031Z,3.20
2023-04-27T23:55:34.747Z,2.90
2023-04-27T23:58:36.031Z,3.28
